sensor_id;sensor_type;location;lat;lon;timestamp;P1;durP1;ratioP1;P2;durP2;ratioP2
18320;SDS011;54904;54.350;18.664;2023-09-07T00:00:13;1.40;;;1.30;;
18320;SDS011;54904;54.350;18.664;2023-09-07T00:02:42;1.08;;;1.08;;
18320;SDS011;54904;54.350;18.664;2023-09-07T00:05:11;1.55;;;1.40;;
18320;SDS011;54904;54.350;18.664;2023-09-07T00:07:40;1.35;;;1.30;;
18320;SDS011;54904;54.350;18.664;2023-09-07T00:10:08;1.50;;;1.38;;
18320;SDS011;54904;54.350;18.664;2023-09-07T00:12:35;1.17;;;1.17;;
18320;SDS011;54904;54.350;18.664;2023-09-07T00:15:04;1.48;;;1.48;;
18320;SDS011;54904;54.350;18.664;2023-09-07T00:17:32;1.15;;;1.05;;
18320;SDS011;54904;54.350;18.664;2023-09-07T00:20:01;3.95;;;1.45;;
18320;SDS011;54904;54.350;18.664;2023-09-07T00:22:34;1.35;;;1.25;;
18320;SDS011;54904;54.350;18.664;2023-09-07T00:25:01;2.08;;;1.30;;
18320;SDS011;54904;54.350;18.664;2023-09-07T00:27:29;1.70;;;1.60;;
18320;SDS011;54904;54.350;18.664;2023-09-07T00:29:56;2.08;;;1.63;;
18320;SDS011;54904;54.350;18.664;2023-09-07T00:32:23;1.58;;;1.48;;
18320;SDS011;54904;54.350;18.664;2023-09-07T00:34:50;1.65;;;1.60;;
18320;SDS011;54904;54.350;18.664;2023-09-07T00:37:19;1.40;;;1.30;;
18320;SDS011;54904;54.350;18.664;2023-09-07T00:39:46;2.45;;;1.30;;
18320;SDS011;54904;54.350;18.664;2023-09-07T00:42:13;1.73;;;1.63;;
18320;SDS011;54904;54.350;18.664;2023-09-07T00:44:40;1.65;;;1.55;;
18320;SDS011;54904;54.350;18.664;2023-09-07T00:47:09;1.40;;;1.30;;
18320;SDS011;54904;54.350;18.664;2023-09-07T00:49:36;3.72;;;1.48;;
18320;SDS011;54904;54.350;18.664;2023-09-07T00:52:04;1.90;;;1.67;;
18320;SDS011;54904;54.350;18.664;2023-09-07T00:54:33;1.70;;;1.60;;
18320;SDS011;54904;54.350;18.664;2023-09-07T00:57:02;1.67;;;1.58;;
18320;SDS011;54904;54.350;18.664;2023-09-07T00:59:29;1.73;;;1.63;;
18320;SDS011;54904;54.350;18.664;2023-09-07T01:01:58;1.63;;;1.52;;
18320;SDS011;54904;54.350;18.664;2023-09-07T01:04:25;2.38;;;1.95;;
18320;SDS011;54904;54.350;18.664;2023-09-07T01:06:52;3.03;;;2.03;;
18320;SDS011;54904;54.350;18.664;2023-09-07T01:09:26;1.83;;;1.73;;
18320;SDS011;54904;54.350;18.664;2023-09-07T01:11:58;3.28;;;1.83;;
18320;SDS011;54904;54.350;18.664;2023-09-07T01:14:25;2.05;;;1.95;;
18320;SDS011;54904;54.350;18.664;2023-09-07T01:16:52;1.92;;;1.83;;
18320;SDS011;54904;54.350;18.664;2023-09-07T01:19:20;1.90;;;1.80;;
18320;SDS011;54904;54.350;18.664;2023-09-07T01:21:48;3.50;;;2.47;;
18320;SDS011;54904;54.350;18.664;2023-09-07T01:24:17;2.45;;;2.22;;
18320;SDS011;54904;54.350;18.664;2023-09-07T01:26:45;2.65;;;2.40;;
18320;SDS011;54904;54.350;18.664;2023-09-07T01:29:15;2.42;;;2.13;;
18320;SDS011;54904;54.350;18.664;2023-09-07T01:31:43;2.25;;;2.05;;
18320;SDS011;54904;54.350;18.664;2023-09-07T01:34:10;3.00;;;2.00;;
18320;SDS011;54904;54.350;18.664;2023-09-07T01:36:37;2.38;;;2.17;;
18320;SDS011;54904;54.350;18.664;2023-09-07T01:39:06;5.00;;;2.30;;
18320;SDS011;54904;54.350;18.664;2023-09-07T01:41:34;2.30;;;2.10;;
18320;SDS011;54904;54.350;18.664;2023-09-07T01:44:01;2.92;;;2.50;;
18320;SDS011;54904;54.350;18.664;2023-09-07T01:46:29;2.25;;;2.10;;
18320;SDS011;54904;54.350;18.664;2023-09-07T01:48:56;2.33;;;2.13;;
18320;SDS011;54904;54.350;18.664;2023-09-07T01:51:23;2.40;;;2.20;;
18320;SDS011;54904;54.350;18.664;2023-09-07T01:53:53;3.60;;;1.90;;
18320;SDS011;54904;54.350;18.664;2023-09-07T01:56:21;2.58;;;2.33;;
18320;SDS011;54904;54.350;18.664;2023-09-07T01:58:48;3.83;;;2.50;;
18320;SDS011;54904;54.350;18.664;2023-09-07T02:01:22;2.80;;;2.55;;
18320;SDS011;54904;54.350;18.664;2023-09-07T02:03:50;3.10;;;2.15;;
18320;SDS011;54904;54.350;18.664;2023-09-07T02:06:18;2.58;;;2.00;;
18320;SDS011;54904;54.350;18.664;2023-09-07T02:08:45;3.05;;;1.80;;
18320;SDS011;54904;54.350;18.664;2023-09-07T02:11:12;2.03;;;1.90;;
18320;SDS011;54904;54.350;18.664;2023-09-07T02:13:42;2.33;;;2.00;;
18320;SDS011;54904;54.350;18.664;2023-09-07T02:16:09;2.38;;;2.15;;
18320;SDS011;54904;54.350;18.664;2023-09-07T02:18:37;3.05;;;1.90;;
18320;SDS011;54904;54.350;18.664;2023-09-07T02:21:08;2.30;;;2.00;;
18320;SDS011;54904;54.350;18.664;2023-09-07T02:23:36;2.40;;;2.20;;
18320;SDS011;54904;54.350;18.664;2023-09-07T02:26:03;2.97;;;2.08;;
18320;SDS011;54904;54.350;18.664;2023-09-07T02:28:31;2.08;;;1.90;;
18320;SDS011;54904;54.350;18.664;2023-09-07T02:31:03;1.75;;;1.65;;
18320;SDS011;54904;54.350;18.664;2023-09-07T02:33:31;2.08;;;1.80;;
18320;SDS011;54904;54.350;18.664;2023-09-07T02:35:58;2.15;;;1.67;;
18320;SDS011;54904;54.350;18.664;2023-09-07T02:38:26;1.80;;;1.70;;
18320;SDS011;54904;54.350;18.664;2023-09-07T02:40:54;1.77;;;1.67;;
18320;SDS011;54904;54.350;18.664;2023-09-07T02:43:22;2.85;;;1.88;;
18320;SDS011;54904;54.350;18.664;2023-09-07T02:45:49;2.22;;;1.83;;
18320;SDS011;54904;54.350;18.664;2023-09-07T02:48:20;2.45;;;2.00;;
18320;SDS011;54904;54.350;18.664;2023-09-07T02:50:48;2.25;;;2.15;;
18320;SDS011;54904;54.350;18.664;2023-09-07T02:53:16;2.95;;;1.73;;
18320;SDS011;54904;54.350;18.664;2023-09-07T02:55:43;2.47;;;1.80;;
18320;SDS011;54904;54.350;18.664;2023-09-07T02:58:10;1.80;;;1.70;;
18320;SDS011;54904;54.350;18.664;2023-09-07T03:00:41;2.00;;;1.90;;
18320;SDS011;54904;54.350;18.664;2023-09-07T03:03:09;3.10;;;1.83;;
18320;SDS011;54904;54.350;18.664;2023-09-07T03:05:39;1.70;;;1.55;;
18320;SDS011;54904;54.350;18.664;2023-09-07T03:08:07;1.83;;;1.73;;
18320;SDS011;54904;54.350;18.664;2023-09-07T03:10:35;1.70;;;1.58;;
18320;SDS011;54904;54.350;18.664;2023-09-07T03:13:03;1.70;;;1.60;;
18320;SDS011;54904;54.350;18.664;2023-09-07T03:15:30;1.60;;;1.50;;
18320;SDS011;54904;54.350;18.664;2023-09-07T03:17:58;1.48;;;1.45;;
18320;SDS011;54904;54.350;18.664;2023-09-07T03:20:26;1.13;;;1.13;;
18320;SDS011;54904;54.350;18.664;2023-09-07T03:22:54;1.60;;;1.50;;
18320;SDS011;54904;54.350;18.664;2023-09-07T03:25:22;1.30;;;1.30;;
18320;SDS011;54904;54.350;18.664;2023-09-07T03:27:49;1.23;;;1.13;;
18320;SDS011;54904;54.350;18.664;2023-09-07T03:30:17;1.30;;;1.30;;
18320;SDS011;54904;54.350;18.664;2023-09-07T03:32:44;1.27;;;1.27;;
18320;SDS011;54904;54.350;18.664;2023-09-07T03:35:11;1.30;;;1.30;;
18320;SDS011;54904;54.350;18.664;2023-09-07T03:37:38;1.20;;;1.20;;
18320;SDS011;54904;54.350;18.664;2023-09-07T03:40:09;1.33;;;1.23;;
18320;SDS011;54904;54.350;18.664;2023-09-07T03:42:39;2.70;;;1.60;;
18320;SDS011;54904;54.350;18.664;2023-09-07T03:45:08;1.33;;;1.33;;
18320;SDS011;54904;54.350;18.664;2023-09-07T03:47:36;1.77;;;1.67;;
18320;SDS011;54904;54.350;18.664;2023-09-07T03:50:04;1.70;;;1.60;;
18320;SDS011;54904;54.350;18.664;2023-09-07T03:52:32;1.42;;;1.40;;
18320;SDS011;54904;54.350;18.664;2023-09-07T03:55:00;1.33;;;1.33;;
18320;SDS011;54904;54.350;18.664;2023-09-07T03:57:29;1.48;;;1.38;;
18320;SDS011;54904;54.350;18.664;2023-09-07T03:59:57;1.40;;;1.40;;
18320;SDS011;54904;54.350;18.664;2023-09-07T04:02:24;1.65;;;1.55;;
18320;SDS011;54904;54.350;18.664;2023-09-07T04:04:52;1.30;;;1.30;;
18320;SDS011;54904;54.350;18.664;2023-09-07T04:07:20;1.45;;;1.35;;
18320;SDS011;54904;54.350;18.664;2023-09-07T04:09:47;1.30;;;1.30;;
18320;SDS011;54904;54.350;18.664;2023-09-07T04:12:16;1.38;;;1.05;;
18320;SDS011;54904;54.350;18.664;2023-09-07T04:14:44;1.50;;;1.40;;
18320;SDS011;54904;54.350;18.664;2023-09-07T04:17:11;1.23;;;1.23;;
18320;SDS011;54904;54.350;18.664;2023-09-07T04:19:39;1.30;;;1.30;;
18320;SDS011;54904;54.350;18.664;2023-09-07T04:22:06;1.20;;;1.20;;
18320;SDS011;54904;54.350;18.664;2023-09-07T04:24:33;1.40;;;1.30;;
18320;SDS011;54904;54.350;18.664;2023-09-07T04:27:02;1.33;;;1.33;;
18320;SDS011;54904;54.350;18.664;2023-09-07T04:29:31;1.33;;;1.30;;
18320;SDS011;54904;54.350;18.664;2023-09-07T04:32:00;1.20;;;1.20;;
18320;SDS011;54904;54.350;18.664;2023-09-07T04:34:28;1.33;;;1.33;;
18320;SDS011;54904;54.350;18.664;2023-09-07T04:36:55;1.73;;;1.63;;
18320;SDS011;54904;54.350;18.664;2023-09-07T04:39:22;1.70;;;1.60;;
18320;SDS011;54904;54.350;18.664;2023-09-07T04:41:51;2.88;;;1.30;;
18320;SDS011;54904;54.350;18.664;2023-09-07T04:44:18;1.40;;;1.40;;
18320;SDS011;54904;54.350;18.664;2023-09-07T04:46:45;1.30;;;1.30;;
18320;SDS011;54904;54.350;18.664;2023-09-07T04:49:14;1.30;;;1.30;;
18320;SDS011;54904;54.350;18.664;2023-09-07T04:51:41;1.38;;;1.20;;
18320;SDS011;54904;54.350;18.664;2023-09-07T04:54:08;1.23;;;1.23;;
18320;SDS011;54904;54.350;18.664;2023-09-07T04:56:35;0.90;;;0.90;;
18320;SDS011;54904;54.350;18.664;2023-09-07T04:59:02;1.00;;;1.00;;
18320;SDS011;54904;54.350;18.664;2023-09-07T05:01:29;1.25;;;1.17;;
18320;SDS011;54904;54.350;18.664;2023-09-07T05:03:57;1.48;;;1.38;;
18320;SDS011;54904;54.350;18.664;2023-09-07T05:06:26;1.50;;;1.23;;
18320;SDS011;54904;54.350;18.664;2023-09-07T05:08:53;1.40;;;1.40;;
18320;SDS011;54904;54.350;18.664;2023-09-07T05:11:20;1.92;;;1.40;;
18320;SDS011;54904;54.350;18.664;2023-09-07T05:13:47;1.35;;;1.25;;
18320;SDS011;54904;54.350;18.664;2023-09-07T05:16:15;1.25;;;1.23;;
18320;SDS011;54904;54.350;18.664;2023-09-07T05:18:42;1.23;;;1.13;;
18320;SDS011;54904;54.350;18.664;2023-09-07T05:21:12;1.52;;;1.42;;
18320;SDS011;54904;54.350;18.664;2023-09-07T05:23:41;1.20;;;1.20;;
18320;SDS011;54904;54.350;18.664;2023-09-07T05:26:09;2.70;;;1.20;;
18320;SDS011;54904;54.350;18.664;2023-09-07T05:28:39;1.05;;;1.05;;
18320;SDS011;54904;54.350;18.664;2023-09-07T05:31:07;1.13;;;1.13;;
18320;SDS011;54904;54.350;18.664;2023-09-07T05:33:35;1.35;;;1.25;;
18320;SDS011;54904;54.350;18.664;2023-09-07T05:36:02;1.02;;;1.02;;
18320;SDS011;54904;54.350;18.664;2023-09-07T05:38:30;3.95;;;1.20;;
18320;SDS011;54904;54.350;18.664;2023-09-07T05:40:58;1.30;;;1.20;;
18320;SDS011;54904;54.350;18.664;2023-09-07T05:43:25;1.10;;;1.10;;
18320;SDS011;54904;54.350;18.664;2023-09-07T05:45:53;0.88;;;0.88;;
18320;SDS011;54904;54.350;18.664;2023-09-07T05:48:20;1.10;;;1.00;;
18320;SDS011;54904;54.350;18.664;2023-09-07T05:50:48;1.20;;;1.10;;
18320;SDS011;54904;54.350;18.664;2023-09-07T05:53:15;1.00;;;1.00;;
18320;SDS011;54904;54.350;18.664;2023-09-07T05:55:44;1.10;;;1.10;;
18320;SDS011;54904;54.350;18.664;2023-09-07T05:58:13;1.27;;;1.27;;
18320;SDS011;54904;54.350;18.664;2023-09-07T06:00:43;1.67;;;1.52;;
18320;SDS011;54904;54.350;18.664;2023-09-07T06:03:10;1.70;;;1.13;;
18320;SDS011;54904;54.350;18.664;2023-09-07T06:05:38;1.20;;;1.20;;
18320;SDS011;54904;54.350;18.664;2023-09-07T06:08:07;0.93;;;0.93;;
18320;SDS011;54904;54.350;18.664;2023-09-07T06:10:35;1.23;;;1.23;;
18320;SDS011;54904;54.350;18.664;2023-09-07T06:13:04;1.08;;;1.08;;
18320;SDS011;54904;54.350;18.664;2023-09-07T06:15:33;1.50;;;1.40;;
18320;SDS011;54904;54.350;18.664;2023-09-07T06:18:00;1.30;;;1.30;;
18320;SDS011;54904;54.350;18.664;2023-09-07T06:20:27;1.48;;;1.38;;
18320;SDS011;54904;54.350;18.664;2023-09-07T06:22:57;1.45;;;1.30;;
18320;SDS011;54904;54.350;18.664;2023-09-07T06:25:24;2.45;;;2.25;;
18320;SDS011;54904;54.350;18.664;2023-09-07T06:27:52;1.75;;;1.65;;
18320;SDS011;54904;54.350;18.664;2023-09-07T06:30:20;2.22;;;1.55;;
18320;SDS011;54904;54.350;18.664;2023-09-07T06:32:48;2.20;;;1.70;;
18320;SDS011;54904;54.350;18.664;2023-09-07T06:35:16;2.00;;;1.80;;
18320;SDS011;54904;54.350;18.664;2023-09-07T06:37:45;1.67;;;1.58;;
18320;SDS011;54904;54.350;18.664;2023-09-07T06:40:14;1.85;;;1.75;;
18320;SDS011;54904;54.350;18.664;2023-09-07T06:42:44;1.48;;;1.48;;
18320;SDS011;54904;54.350;18.664;2023-09-07T06:45:15;1.73;;;1.63;;
18320;SDS011;54904;54.350;18.664;2023-09-07T06:47:42;1.85;;;1.75;;
18320;SDS011;54904;54.350;18.664;2023-09-07T06:50:11;2.58;;;1.60;;
18320;SDS011;54904;54.350;18.664;2023-09-07T06:52:38;1.90;;;1.80;;
18320;SDS011;54904;54.350;18.664;2023-09-07T06:55:07;1.48;;;1.45;;
18320;SDS011;54904;54.350;18.664;2023-09-07T06:57:35;1.67;;;1.58;;
18320;SDS011;54904;54.350;18.664;2023-09-07T07:00:03;1.60;;;1.50;;
18320;SDS011;54904;54.350;18.664;2023-09-07T07:02:32;1.40;;;1.30;;
18320;SDS011;54904;54.350;18.664;2023-09-07T07:04:59;1.60;;;1.50;;
18320;SDS011;54904;54.350;18.664;2023-09-07T07:07:29;2.20;;;2.10;;
18320;SDS011;54904;54.350;18.664;2023-09-07T07:09:57;2.00;;;1.90;;
18320;SDS011;54904;54.350;18.664;2023-09-07T07:12:24;1.67;;;1.58;;
18320;SDS011;54904;54.350;18.664;2023-09-07T07:14:51;1.95;;;1.80;;
18320;SDS011;54904;54.350;18.664;2023-09-07T07:17:19;2.40;;;2.30;;
18320;SDS011;54904;54.350;18.664;2023-09-07T07:19:47;1.73;;;1.63;;
18320;SDS011;54904;54.350;18.664;2023-09-07T07:22:14;2.13;;;2.03;;
18320;SDS011;54904;54.350;18.664;2023-09-07T07:24:42;2.97;;;2.72;;
18320;SDS011;54904;54.350;18.664;2023-09-07T07:27:10;2.80;;;2.60;;
18320;SDS011;54904;54.350;18.664;2023-09-07T07:29:37;2.15;;;1.92;;
18320;SDS011;54904;54.350;18.664;2023-09-07T07:32:05;2.17;;;2.08;;
18320;SDS011;54904;54.350;18.664;2023-09-07T07:34:32;1.88;;;1.70;;
18320;SDS011;54904;54.350;18.664;2023-09-07T07:37:00;1.92;;;1.83;;
18320;SDS011;54904;54.350;18.664;2023-09-07T07:39:27;2.13;;;2.03;;
18320;SDS011;54904;54.350;18.664;2023-09-07T07:41:57;2.28;;;2.17;;
18320;SDS011;54904;54.350;18.664;2023-09-07T07:44:24;2.10;;;2.00;;
18320;SDS011;54904;54.350;18.664;2023-09-07T07:46:51;2.20;;;2.10;;
18320;SDS011;54904;54.350;18.664;2023-09-07T07:49:18;1.73;;;1.63;;
18320;SDS011;54904;54.350;18.664;2023-09-07T07:51:45;1.98;;;1.88;;
18320;SDS011;54904;54.350;18.664;2023-09-07T07:54:12;1.90;;;1.80;;
18320;SDS011;54904;54.350;18.664;2023-09-07T07:56:40;2.00;;;1.90;;
18320;SDS011;54904;54.350;18.664;2023-09-07T07:59:09;3.83;;;2.30;;
18320;SDS011;54904;54.350;18.664;2023-09-07T08:01:36;2.47;;;2.28;;
18320;SDS011;54904;54.350;18.664;2023-09-07T08:04:04;2.70;;;2.38;;
18320;SDS011;54904;54.350;18.664;2023-09-07T08:06:33;1.98;;;1.88;;
18320;SDS011;54904;54.350;18.664;2023-09-07T08:09:01;1.98;;;1.88;;
18320;SDS011;54904;54.350;18.664;2023-09-07T08:11:29;1.80;;;1.70;;
18320;SDS011;54904;54.350;18.664;2023-09-07T08:13:56;3.00;;;1.60;;
18320;SDS011;54904;54.350;18.664;2023-09-07T08:16:25;2.00;;;1.90;;
18320;SDS011;54904;54.350;18.664;2023-09-07T08:18:52;1.40;;;1.40;;
18320;SDS011;54904;54.350;18.664;2023-09-07T08:21:20;1.95;;;1.80;;
18320;SDS011;54904;54.350;18.664;2023-09-07T08:23:47;1.83;;;1.73;;
18320;SDS011;54904;54.350;18.664;2023-09-07T08:26:15;2.50;;;2.30;;
18320;SDS011;54904;54.350;18.664;2023-09-07T08:28:44;1.80;;;1.70;;
18320;SDS011;54904;54.350;18.664;2023-09-07T08:31:12;2.28;;;2.17;;
18320;SDS011;54904;54.350;18.664;2023-09-07T08:33:47;2.00;;;1.90;;
18320;SDS011;54904;54.350;18.664;2023-09-07T08:36:16;2.03;;;1.90;;
18320;SDS011;54904;54.350;18.664;2023-09-07T08:38:43;2.38;;;2.20;;
18320;SDS011;54904;54.350;18.664;2023-09-07T08:41:10;2.58;;;2.13;;
18320;SDS011;54904;54.350;18.664;2023-09-07T08:43:39;2.40;;;2.30;;
18320;SDS011;54904;54.350;18.664;2023-09-07T08:46:13;2.05;;;1.95;;
18320;SDS011;54904;54.350;18.664;2023-09-07T08:48:42;2.13;;;1.92;;
18320;SDS011;54904;54.350;18.664;2023-09-07T08:51:11;2.60;;;2.40;;
18320;SDS011;54904;54.350;18.664;2023-09-07T08:53:39;1.90;;;1.80;;
18320;SDS011;54904;54.350;18.664;2023-09-07T08:56:11;2.10;;;2.00;;
18320;SDS011;54904;54.350;18.664;2023-09-07T08:58:39;2.95;;;2.72;;
18320;SDS011;54904;54.350;18.664;2023-09-07T09:01:06;2.90;;;2.35;;
18320;SDS011;54904;54.350;18.664;2023-09-07T09:03:34;2.72;;;2.05;;
18320;SDS011;54904;54.350;18.664;2023-09-07T09:06:02;2.28;;;2.10;;
18320;SDS011;54904;54.350;18.664;2023-09-07T09:08:42;2.22;;;2.03;;
18320;SDS011;54904;54.350;18.664;2023-09-07T09:11:09;2.70;;;2.50;;
18320;SDS011;54904;54.350;18.664;2023-09-07T09:13:36;2.88;;;2.67;;
18320;SDS011;54904;54.350;18.664;2023-09-07T09:16:05;2.30;;;2.10;;
18320;SDS011;54904;54.350;18.664;2023-09-07T09:18:33;2.22;;;2.03;;
18320;SDS011;54904;54.350;18.664;2023-09-07T09:21:00;2.30;;;2.10;;
18320;SDS011;54904;54.350;18.664;2023-09-07T09:23:30;2.20;;;2.10;;
18320;SDS011;54904;54.350;18.664;2023-09-07T09:26:00;2.17;;;2.08;;
18320;SDS011;54904;54.350;18.664;2023-09-07T09:28:28;2.13;;;1.92;;
18320;SDS011;54904;54.350;18.664;2023-09-07T09:30:58;2.20;;;2.10;;
18320;SDS011;54904;54.350;18.664;2023-09-07T09:33:25;2.13;;;2.00;;
18320;SDS011;54904;54.350;18.664;2023-09-07T09:35:53;2.45;;;2.25;;
18320;SDS011;54904;54.350;18.664;2023-09-07T09:38:21;2.55;;;2.35;;
18320;SDS011;54904;54.350;18.664;2023-09-07T09:40:49;2.92;;;2.63;;
18320;SDS011;54904;54.350;18.664;2023-09-07T09:43:17;3.17;;;2.40;;
18320;SDS011;54904;54.350;18.664;2023-09-07T09:45:46;2.78;;;2.42;;
18320;SDS011;54904;54.350;18.664;2023-09-07T09:48:16;3.33;;;2.00;;
18320;SDS011;54904;54.350;18.664;2023-09-07T09:50:46;2.70;;;2.50;;
18320;SDS011;54904;54.350;18.664;2023-09-07T09:53:14;2.20;;;2.10;;
18320;SDS011;54904;54.350;18.664;2023-09-07T09:55:44;2.70;;;2.33;;
18320;SDS011;54904;54.350;18.664;2023-09-07T09:58:12;2.60;;;2.40;;
18320;SDS011;54904;54.350;18.664;2023-09-07T10:00:41;2.17;;;1.90;;
18320;SDS011;54904;54.350;18.664;2023-09-07T10:03:10;2.08;;;1.90;;
18320;SDS011;54904;54.350;18.664;2023-09-07T10:05:40;2.40;;;2.30;;
18320;SDS011;54904;54.350;18.664;2023-09-07T10:08:08;2.60;;;2.40;;
18320;SDS011;54904;54.350;18.664;2023-09-07T10:10:37;2.40;;;2.28;;
18320;SDS011;54904;54.350;18.664;2023-09-07T10:13:05;2.20;;;2.00;;
18320;SDS011;54904;54.350;18.664;2023-09-07T10:15:32;1.85;;;1.75;;
18320;SDS011;54904;54.350;18.664;2023-09-07T10:18:06;3.47;;;2.10;;
18320;SDS011;54904;54.350;18.664;2023-09-07T10:20:51;2.63;;;2.42;;
18320;SDS011;54904;54.350;18.664;2023-09-07T10:23:21;2.30;;;2.20;;
18320;SDS011;54904;54.350;18.664;2023-09-07T10:25:49;2.72;;;2.53;;
18320;SDS011;54904;54.350;18.664;2023-09-07T10:28:18;2.10;;;2.00;;
18320;SDS011;54904;54.350;18.664;2023-09-07T10:30:58;1.77;;;1.67;;
18320;SDS011;54904;54.350;18.664;2023-09-07T10:33:30;1.70;;;1.63;;
18320;SDS011;54904;54.350;18.664;2023-09-07T10:35:57;2.25;;;2.15;;
18320;SDS011;54904;54.350;18.664;2023-09-07T10:38:25;1.95;;;1.85;;
18320;SDS011;54904;54.350;18.664;2023-09-07T10:40:55;1.95;;;1.80;;
18320;SDS011;54904;54.350;18.664;2023-09-07T10:43:24;2.20;;;2.10;;
18320;SDS011;54904;54.350;18.664;2023-09-07T10:45:52;1.80;;;1.70;;
18320;SDS011;54904;54.350;18.664;2023-09-07T10:48:19;3.25;;;1.80;;
18320;SDS011;54904;54.350;18.664;2023-09-07T10:50:48;1.75;;;1.65;;
18320;SDS011;54904;54.350;18.664;2023-09-07T10:53:23;2.40;;;2.20;;
18320;SDS011;54904;54.350;18.664;2023-09-07T10:55:52;1.90;;;1.80;;
18320;SDS011;54904;54.350;18.664;2023-09-07T10:58:27;3.40;;;1.77;;
18320;SDS011;54904;54.350;18.664;2023-09-07T11:00:56;1.98;;;1.80;;
18320;SDS011;54904;54.350;18.664;2023-09-07T11:03:23;2.55;;;2.10;;
18320;SDS011;54904;54.350;18.664;2023-09-07T11:05:54;1.92;;;1.90;;
18320;SDS011;54904;54.350;18.664;2023-09-07T11:08:24;1.73;;;1.63;;
18320;SDS011;54904;54.350;18.664;2023-09-07T11:10:51;1.98;;;1.88;;
18320;SDS011;54904;54.350;18.664;2023-09-07T11:13:19;1.85;;;1.73;;
18320;SDS011;54904;54.350;18.664;2023-09-07T11:15:48;1.90;;;1.80;;
18320;SDS011;54904;54.350;18.664;2023-09-07T11:18:19;1.67;;;1.63;;
18320;SDS011;54904;54.350;18.664;2023-09-07T11:20:46;2.10;;;1.90;;
18320;SDS011;54904;54.350;18.664;2023-09-07T11:23:16;2.00;;;1.80;;
18320;SDS011;54904;54.350;18.664;2023-09-07T11:25:44;1.88;;;1.77;;
18320;SDS011;54904;54.350;18.664;2023-09-07T11:28:12;1.73;;;1.63;;
18320;SDS011;54904;54.350;18.664;2023-09-07T11:30:48;1.80;;;1.70;;
18320;SDS011;54904;54.350;18.664;2023-09-07T11:33:16;2.00;;;1.80;;
18320;SDS011;54904;54.350;18.664;2023-09-07T11:35:43;2.25;;;2.00;;
18320;SDS011;54904;54.350;18.664;2023-09-07T11:38:12;1.90;;;1.80;;
18320;SDS011;54904;54.350;18.664;2023-09-07T11:40:42;2.20;;;1.95;;
18320;SDS011;54904;54.350;18.664;2023-09-07T11:43:10;1.92;;;1.83;;
18320;SDS011;54904;54.350;18.664;2023-09-07T11:45:37;1.58;;;1.52;;
18320;SDS011;54904;54.350;18.664;2023-09-07T11:48:05;1.60;;;1.50;;
18320;SDS011;54904;54.350;18.664;2023-09-07T11:50:34;1.38;;;1.38;;
18320;SDS011;54904;54.350;18.664;2023-09-07T11:53:03;1.88;;;1.77;;
18320;SDS011;54904;54.350;18.664;2023-09-07T11:55:30;1.73;;;1.60;;
18320;SDS011;54904;54.350;18.664;2023-09-07T11:57:59;4.13;;;1.63;;
18320;SDS011;54904;54.350;18.664;2023-09-07T12:00:26;1.40;;;1.40;;
18320;SDS011;54904;54.350;18.664;2023-09-07T12:02:56;1.42;;;1.38;;
18320;SDS011;54904;54.350;18.664;2023-09-07T12:05:23;1.42;;;1.40;;
18320;SDS011;54904;54.350;18.664;2023-09-07T12:07:50;1.70;;;1.60;;
18320;SDS011;54904;54.350;18.664;2023-09-07T12:10:18;1.70;;;1.60;;
18320;SDS011;54904;54.350;18.664;2023-09-07T12:12:45;1.35;;;1.35;;
18320;SDS011;54904;54.350;18.664;2023-09-07T12:15:13;1.67;;;1.58;;
18320;SDS011;54904;54.350;18.664;2023-09-07T12:17:40;1.50;;;1.50;;
18320;SDS011;54904;54.350;18.664;2023-09-07T12:20:08;2.25;;;1.85;;
18320;SDS011;54904;54.350;18.664;2023-09-07T12:22:38;1.48;;;1.45;;
18320;SDS011;54904;54.350;18.664;2023-09-07T12:25:06;1.30;;;1.20;;
18320;SDS011;54904;54.350;18.664;2023-09-07T12:27:36;1.33;;;1.27;;
18320;SDS011;54904;54.350;18.664;2023-09-07T12:30:03;1.63;;;1.52;;
18320;SDS011;54904;54.350;18.664;2023-09-07T12:32:38;1.60;;;1.50;;
18320;SDS011;54904;54.350;18.664;2023-09-07T12:35:05;1.73;;;1.63;;
18320;SDS011;54904;54.350;18.664;2023-09-07T12:37:33;1.88;;;1.20;;
18320;SDS011;54904;54.350;18.664;2023-09-07T12:40:01;1.98;;;1.80;;
18320;SDS011;54904;54.350;18.664;2023-09-07T12:42:37;1.50;;;1.40;;
18320;SDS011;54904;54.350;18.664;2023-09-07T12:45:06;1.63;;;1.50;;
18320;SDS011;54904;54.350;18.664;2023-09-07T12:47:34;1.63;;;1.52;;
18320;SDS011;54904;54.350;18.664;2023-09-07T12:50:03;1.60;;;1.50;;
18320;SDS011;54904;54.350;18.664;2023-09-07T12:52:32;1.30;;;1.30;;
18320;SDS011;54904;54.350;18.664;2023-09-07T12:55:00;1.60;;;1.50;;
18320;SDS011;54904;54.350;18.664;2023-09-07T12:57:28;1.40;;;1.30;;
18320;SDS011;54904;54.350;18.664;2023-09-07T12:59:55;1.48;;;1.38;;
18320;SDS011;54904;54.350;18.664;2023-09-07T13:02:22;1.35;;;1.35;;
18320;SDS011;54904;54.350;18.664;2023-09-07T13:04:49;1.20;;;1.20;;
18320;SDS011;54904;54.350;18.664;2023-09-07T13:07:18;1.50;;;1.40;;
18320;SDS011;54904;54.350;18.664;2023-09-07T13:09:45;1.50;;;1.40;;
18320;SDS011;54904;54.350;18.664;2023-09-07T13:12:12;1.63;;;1.52;;
18320;SDS011;54904;54.350;18.664;2023-09-07T13:14:39;1.67;;;1.23;;
18320;SDS011;54904;54.350;18.664;2023-09-07T13:17:09;1.40;;;1.30;;
18320;SDS011;54904;54.350;18.664;2023-09-07T13:19:38;1.55;;;1.45;;
18320;SDS011;54904;54.350;18.664;2023-09-07T13:22:05;1.30;;;1.30;;
18320;SDS011;54904;54.350;18.664;2023-09-07T13:24:34;1.70;;;1.40;;
18320;SDS011;54904;54.350;18.664;2023-09-07T13:27:01;1.55;;;1.33;;
18320;SDS011;54904;54.350;18.664;2023-09-07T13:29:28;1.40;;;1.30;;
18320;SDS011;54904;54.350;18.664;2023-09-07T13:31:56;1.75;;;1.30;;
18320;SDS011;54904;54.350;18.664;2023-09-07T13:34:24;1.60;;;1.50;;
18320;SDS011;54904;54.350;18.664;2023-09-07T13:36:51;1.60;;;1.50;;
18320;SDS011;54904;54.350;18.664;2023-09-07T13:39:19;1.40;;;1.40;;
18320;SDS011;54904;54.350;18.664;2023-09-07T13:41:47;1.60;;;1.50;;
18320;SDS011;54904;54.350;18.664;2023-09-07T13:44:15;1.48;;;1.42;;
18320;SDS011;54904;54.350;18.664;2023-09-07T13:46:42;1.55;;;1.45;;
18320;SDS011;54904;54.350;18.664;2023-09-07T13:49:10;1.70;;;1.60;;
18320;SDS011;54904;54.350;18.664;2023-09-07T13:51:39;1.48;;;1.38;;
18320;SDS011;54904;54.350;18.664;2023-09-07T13:54:07;1.40;;;1.40;;
18320;SDS011;54904;54.350;18.664;2023-09-07T13:56:34;1.20;;;1.17;;
18320;SDS011;54904;54.350;18.664;2023-09-07T13:59:03;1.30;;;1.20;;
18320;SDS011;54904;54.350;18.664;2023-09-07T14:01:31;1.17;;;1.13;;
18320;SDS011;54904;54.350;18.664;2023-09-07T14:03:58;1.45;;;1.35;;
18320;SDS011;54904;54.350;18.664;2023-09-07T14:06:25;2.58;;;1.80;;
18320;SDS011;54904;54.350;18.664;2023-09-07T14:08:52;1.45;;;1.30;;
18320;SDS011;54904;54.350;18.664;2023-09-07T14:11:19;1.30;;;1.30;;
18320;SDS011;54904;54.350;18.664;2023-09-07T14:13:47;1.05;;;1.05;;
18320;SDS011;54904;54.350;18.664;2023-09-07T14:16:18;1.63;;;1.52;;
18320;SDS011;54904;54.350;18.664;2023-09-07T14:18:45;1.27;;;1.23;;
18320;SDS011;54904;54.350;18.664;2023-09-07T14:21:13;1.40;;;1.30;;
18320;SDS011;54904;54.350;18.664;2023-09-07T14:23:41;1.40;;;1.40;;
18320;SDS011;54904;54.350;18.664;2023-09-07T14:26:08;1.20;;;1.20;;
18320;SDS011;54904;54.350;18.664;2023-09-07T14:28:36;1.13;;;1.13;;
18320;SDS011;54904;54.350;18.664;2023-09-07T14:31:04;1.00;;;1.00;;
18320;SDS011;54904;54.350;18.664;2023-09-07T14:33:34;1.10;;;1.08;;
18320;SDS011;54904;54.350;18.664;2023-09-07T14:36:04;2.85;;;1.15;;
18320;SDS011;54904;54.350;18.664;2023-09-07T14:38:31;1.30;;;1.08;;